D/T METAR WX W/SPE G/SPE TEMP DEWP FEEL
31/01/23 12:25 EGUN 311225Z 29017G25KT 9999 SCT028 BKN200 10/08 A3014 RMK AO2A SCT V BKN SLP210 $ 19.6mph 28.8mph 10°C 8°C 10.4°C
30/01/23 12:55 EGUN 301255Z 30019G24KT 9999 FEW040 SCT180 BKN250 09/07 A3022 RMK AO2A SLP237 T00920071 $ 21.9mph 27.6mph 9.2°C 7.1°C 9.3°C
30/01/23 11:55 EGUN 301155Z 29016KT 9999 FEW180 SCT250 09/07 A3022 RMK AO2A SLP237 T00880074 10088 20041 52016 $ 18.4mph 8.8°C 7.4°C 9.0°C
30/01/23 09:55 EGUN 300955Z 29018KT 9999 FEW050 SCT150 SCT250 07/07 A3019 RMK AO2A SLP227 T00700070 $ 20.7mph 7°C 7°C 7.0°C
30/01/23 07:55 EGUN 300755Z 27013G18KT 9999 FEW150 04/04 A3015 RMK AO2A SLP213 T00420042 $ 15.0mph 20.7mph 4.2°C 4.2°C 3.2°C
30/01/23 06:55 EGUN 300655Z 27012G18KT 9999 FEW100 05/05 A3013 RMK AO2A SLP206 T00450045 $ 13.8mph 20.7mph 4.5°C 4.5°C 3.6°C
09/01/23 05:55 EGUN 090555Z 24008KT 9999 FEW048 04/04 A2931 RMK AO2A SLP929 T00390039 10044 20027 52026 $ 9.2mph 3.9°C 3.9°C 2.8°C
09/01/23 04:55 EGUN 090455Z 26007KT 9999 FEW050 04/04 A2928 RMK AO2A SLP918 T00430043 $ 8.1mph 4.3°C 4.3°C 3.4°C
09/01/23 03:55 EGUN 090355Z 25008KT 9999 SCT040 04/04 A2926 RMK AO2A SLP912 T00390039 $ 9.2mph 3.9°C 3.9°C 2.8°C
09/01/23 02:55 EGUN 090255Z 24007KT 9999 BKN036 04/04 A2923 RMK AO2A SLP902 T00410041 52016 $ 8.1mph 4.1°C 4.1°C 3.1°C
09/01/23 00:55 EGUN 090055Z 16004KT 9999 SCT032 BKN040 04/04 A2919 RMK AO2A SLP888 T00390039 $ 4.6mph 3.9°C 3.9°C 2.8°C
08/01/23 23:55 EGUN 082355Z 18006KT 9999 BKN037 04/04 A2918 RMK AO2A SLP885 60015 T00440044 10067 20038 400890038 58001 $ 6.9mph 4.4°C 4.4°C 3.5°C
08/01/23 22:55 EGUN 082255Z 18009KT 9999 FEW080 04/04 A2918 RMK AO2A SLP885 T00400040 $ 10.4mph 4°C 4°C 3.0°C
08/01/23 21:55 EGUN 082155Z 19007KT 9999 SCT060 04/04 A2919 RMK AO2A SLP888 T00400040 $ 8.1mph 4°C 4°C 3.0°C
08/01/23 18:55 EGUN 081855Z 21008KT 9999 FEW022 BKN030 05/05 A2917 RMK AO2A PK WND 24026/03 RAB1655E55 SLP881 P0015 T00510051 $ 9.2mph 5.1°C 5.1°C 4.4°C
08/01/23 17:55 EGUN 081755Z 22015KT 9999 -RA SCT028 BKN055 BKN100 07/07 A2916 RMK AO2A RAB55 SLP878 P0000 60017 T00680068 10083 20068 55004 $ -RA 17.3mph 6.8°C 6.8°C 6.7°C
08/01/23 16:55 EGUN 081655Z 20013KT 9999 BKN030 BKN100 07/07 A2916 RMK AO2A SLP878 T00700070 $ 15.0mph 7°C 7°C 7.0°C
08/01/23 15:55 EGUN 081555Z 18013G19KT 9999 BKN030 BKN080 07/07 A2916 RMK AO2A RAE55 SLP878 P0000 T00690069 $ 15.0mph 21.9mph 6.9°C 6.9°C 6.9°C
08/01/23 14:55 EGUN 081455Z 19018G25KT 9999 -RA BKN028 BKN033 07/07 A2917 RMK AO2A RAE03RAB11 SLP881 P0005 60017 T00680068 57030 $ -RA 20.7mph 28.8mph 6.8°C 6.8°C 6.7°C
08/01/23 14:11 EGUN 081411Z 19014KT 9999 -RA SCT030 SCT039 07/07 A2920 RMK AO2A RAB11 SLP891 $ -RA 16.1mph 7°C 7°C 7.0°C
08/01/23 13:36 EGUN 081336Z 20022G32KT 9999 -RA SCT032 BKN050 07/07 A2922 RMK AO2A RAB36 SLP898 $ -RA 25.3mph 36.8mph 7°C 7°C 7.0°C
08/01/23 13:08 EGUN 081308Z 19013KT 9999 SCT024 BKN037 07/07 A2923 RMK AO2A RAE08 SLP901 $ 15.0mph 7°C 7°C 7.0°C
08/01/23 12:01 EGUN 081201Z 19012KT 9999 -RA SCT019 BKN026 OVC034 08/08 A2927 RMK AO2A RAB01 SLP915 $ -RA 13.8mph 8°C 8°C 8.4°C
08/01/23 10:55 EGUN 081055Z 18013KT 9999 FEW050 SCT100 BKN200 09/09 A2930 RMK AO2A SLP925 T00870087 $ 15.0mph 8.7°C 8.7°C 9.4°C
08/01/23 09:55 EGUN 080955Z 19013G20KT 9999 FEW041 SCT100 08/08 A2931 RMK AO2A SLP929 T00770077 $ 15.0mph 23.0mph 7.7°C 7.7°C 8.0°C
08/01/23 08:55 EGUN 080855Z 18012KT 9999 FEW041 06/06 A2933 RMK AO2A SLP935 T00640064 57006 $ 13.8mph 6.4°C 6.4°C 6.2°C
08/01/23 07:55 EGUN 080755Z 19015G21KT 9999 BKN100 BKN200 07/07 A2933 RMK AO2A SLP935 T00660066 $ 17.3mph 24.2mph 6.6°C 6.6°C 6.5°C
08/01/23 06:55 EGUN 080655Z 20014KT 9999 SCT080 BKN160 07/07 A2934 RMK AO2A SLP939 T00680068 $ 16.1mph 6.8°C 6.8°C 6.7°C
08/01/23 05:55 EGUN 080555Z 20019G25KT 9999 SCT080 BKN160 07/07 A2934 RMK AO2A SLP939 T00740070 10079 20068 57012 $ 21.9mph 28.8mph 7.4°C 7°C 7.4°C
08/01/23 04:55 EGUN 080455Z 21020G24KT 9999 SCT080 BKN160 08/08 A2935 RMK AO2A SLP942 T00780078 $ 23.0mph 27.6mph 7.8°C 7.8°C 8.1°C
08/01/23 03:55 EGUN 080355Z 19016KT 9999 BKN160 08/08 A2936 RMK AO2A SLP946 T00750075 $ 18.4mph 7.5°C 7.5°C 7.7°C
08/01/23 02:55 EGUN 080255Z 18012G21KT 9999 BKN250 08/08 A2938 RMK AO2A SLP952 T00770077 57006 $ 13.8mph 24.2mph 7.7°C 7.7°C 8.0°C
08/01/23 01:55 EGUN 080155Z 18010KT 9999 SCT250 07/07 A2938 RMK AO2A SLP952 T00730073 $ 11.5mph 7.3°C 7.3°C 7.4°C
08/01/23 00:55 EGUN 080055Z 19010KT 9999 FEW250 07/07 A2939 RMK AO2A SLP956 T00700070 $ 11.5mph 7°C 7°C 7.0°C
07/01/23 23:55 EGUN 072355Z 20013KT 9999 FEW250 07/07 A2939 RMK AO2A SLP956 60002 T00740074 10103 20066 401230066 50002 $ 15.0mph 7.4°C 7.4°C 7.6°C
07/01/23 22:55 EGUN 072255Z 20013G19KT 9999 FEW250 07/07 A2940 RMK AO2A SLP959 T00680068 $ 15.0mph 21.9mph 6.8°C 6.8°C 6.7°C
07/01/23 21:55 EGUN 072155Z 20013KT 9999 FEW250 07/07 A2940 RMK AO2A SLP959 T00680068 $ 15.0mph 6.8°C 6.8°C 6.7°C
07/01/23 20:55 EGUN 072055Z 21016G22KT 9999 FEW020 07/07 A2939 RMK AO2A SLP956 60002 T00720072 52016 $ 18.4mph 25.3mph 7.2°C 7.2°C 7.3°C
07/01/23 19:55 EGUN 071955Z 22017KT 9999 FEW025 08/08 A2937 RMK AO2A PK WND 23026/1858 RAE08 SLP949 P0001 T00780078 $ 19.6mph 7.8°C 7.8°C 8.1°C
07/01/23 19:09 EGUN 071909Z 23017G26KT 9999 FEW025 BKN033 08/08 A2935 RMK AO2A RAE08 SLP942 $ 19.6mph 29.9mph 8°C 8°C 8.4°C
07/01/23 17:55 EGUN 071755Z 20014G20KT 9999 -RA FEW043 BKN065 10/10 A2934 RMK AO2A RAB40 SLP939 P0000 60000 T01020102 10108 20095 57012 $ -RA 16.1mph 23.0mph 10.2°C 10.2°C 11.6°C
07/01/23 17:40 EGUN 071740Z 19015G23KT 9999 -RA BKN050 11/11 A2934 RMK AO2A RAB40 SLP939 $ -RA 17.3mph 26.5mph 11°C 11°C 12.8°C
07/01/23 16:55 EGUN 071655Z 18010KT 9999 FEW027 SCT048 10/10 A2934 RMK AO2A SLP939 T01030103 $ 11.5mph 10.3°C 10.3°C 11.7°C
07/01/23 16:25 EGUN 071625Z COR 18011KT 9999 BKN018 BKN024 10/10 A2936 RMK AO2A SLP945 $ COR 1639 12.7mph 10°C 10°C 11.3°C
07/01/23 15:55 EGUN 071555Z 19013G20KT 9999 BKN014 BKN045 11/11 A2937 RMK AO2A SLP949 T01050105 $ 15.0mph 23.0mph 10.5°C 10.5°C 12.0°C
07/01/23 14:55 EGUN 071455Z 19020G24KT 9999 OVC016 11/11 A2937 RMK AO2A PK WND 19026/32 SLP949 60000 T01060106 57027 $ 23.0mph 27.6mph 10.6°C 10.6°C 12.2°C
07/01/23 13:55 EGUN 071355Z 18014G23KT 9999 BKN017 OVC024 11/11 A2940 RMK AO2A RAE50 SLP959 P0000 T01070107 $ 16.1mph 26.5mph 10.7°C 10.7°C 12.3°C
07/01/23 12:55 EGUN 071255Z 18014G20KT 8000 -RA BR OVC017 10/10 A2942 RMK AO2A CIG 012V018 CIG 014 RWY10 SLP966 P0000 T00980098 $ -RA BR 16.1mph 23.0mph 9.8°C 9.8°C 11.0°C
07/01/23 11:55 EGUN 071155Z 17016G21KT 9000 -RA BKN014 OVC020 10/10 A2946 RMK AO2A PK WND 15027/1059 BKN V OVC SLP979 P0000 60000 T00970097 10115 20092 57024 $ -RA 18.4mph 24.2mph 9.7°C 9.7°C 10.8°C
07/01/23 10:55 EGUN 071055Z 17015G27KT 9999 -RA BKN013 OVC023 09/09 A2948 RMK AO2A CIG 013V023 SLP986 P0000 60000 T00920092 10120 20092 57021 $ -RA 17.3mph 31.1mph 9.2°C 9.2°C 10.1°C
07/01/23 09:55 EGUN 070955Z 17016G25KT 9999 -RA OVC026 10/10 A2950 RMK AO2A PK WND 16028/07 RAB33 SLP993 P0000 T00990099 $ -RA 18.4mph 28.8mph 9.9°C 9.9°C 11.1°C
07/01/23 09:33 EGUN 070933Z 17018G25KT 9999 -RA OVC026 10/10 A2951 RMK AO2A RAB33 SLP996 $ -RA 20.7mph 28.8mph 10°C 10°C 11.3°C
07/01/23 09:05 EGUN 070905Z AUTO 16020G26KT 9999 BKN026 OVC032 10/10 A2952 RMK AO2 CIG 026V032 SLP000 $ 23.0mph 29.9mph 10°C 10°C 11.3°C
07/01/23 07:55 EGUN 070755Z 17018G25KT 9999 BKN046 BKN100 11/10 A2955 RMK AO2A PK WND 17030/54 SLP010 T01060100 $ 20.7mph 28.8mph 10.6°C 10°C 11.9°C
07/01/23 06:55 EGUN 070655Z 17018G26KT 9999 FEW025 BKN050 OVC100 11/10 A2957 RMK AO2A PK WND 19028/39 SLP017 T01100102 $ 20.7mph 29.9mph 11°C 10.2°C 12.4°C
07/01/23 06:45 EGUN 070645Z 17017G23KT 9999 SCT029 OVC050 11/11 A2958 RMK AO2A SLP020 $ 19.6mph 26.5mph 11°C 11°C 12.8°C
07/01/23 06:05 EGUN 070605Z 17015G23KT 9999 BKN024 OVC031 11/11 A2960 RMK AO2A SLP027 $ 17.3mph 26.5mph 11°C 11°C 12.8°C
07/01/23 04:55 EGUN 070455Z 19020G28KT 9999 OVC038 12/12 A2963 RMK AO2A PK WND 20029/04 SLP037 T01210118 $ 23.0mph 32.2mph 12.1°C 11.8°C 14.3°C
07/01/23 03:55 EGUN 070355Z 19018G26KT 9999 BKN036 OVC160 12/12 A2965 RMK AO2A PK WND 19029/33 SLP044 T01210121 $ 20.7mph 29.9mph 12.1°C 12.1°C 14.4°C
07/01/23 02:55 EGUN 070255Z 18018G25KT 9999 SCT038 12/12 A2967 RMK AO2A SCT V BKN SLP050 T01200120 57027 $ 20.7mph 28.8mph 12°C 12°C 14.3°C
07/01/23 01:55 EGUN 070155Z 19017G21KT 9999 BKN046 OVC150 12/12 A2970 RMK AO2A PK WND 20027/0055 SLP061 T01210121 $ 19.6mph 24.2mph 12.1°C 12.1°C 14.4°C
07/01/23 00:55 EGUN 070055Z 20017G25KT 9999 BKN040 BKN150 12/12 A2973 RMK AO2A PK WND 19027/53 SLP071 T01220122 $ 19.6mph 28.8mph 12.2°C 12.2°C 14.6°C
06/01/23 23:55 EGUN 062355Z 20017KT 9999 BKN040 BKN160 12/12 A2975 RMK AO2A PK WND 20028/34 SLP078 T01220122 10124 20088 401240063 57018 $ 19.6mph 12.2°C 12.2°C 14.6°C
06/01/23 22:55 EGUN 062255Z 21016G24KT 9999 OVC030 12/12 A2977 RMK AO2A SLP084 T01240124 $ 18.4mph 27.6mph 12.4°C 12.4°C 14.9°C
06/01/23 21:55 EGUN 062155Z 21017KT 9999 SCT029 BKN180 12/12 A2979 RMK AO2A SLP091 T01200120 $ 19.6mph 12°C 12°C 14.3°C
06/01/23 21:10 EGUN 062110Z 20016KT 9999 SCT015 OVC026 12/12 A2980 RMK AO2A SLP095 $ 18.4mph 12°C 12°C 14.3°C
06/01/23 19:55 EGUN 061955Z 18009KT 9999 BKN013 OVC045 10/10 A2983 RMK AO2A RAB25E41 SLP105 P0000 T01030103 $ 10.4mph 10.3°C 10.3°C 11.7°C
06/01/23 19:41 EGUN 061941Z 17011KT 9999 BKN015 OVC046 10/10 A2983 RMK AO2A RAB25E41 SLP105 $ 12.7mph 10°C 10°C 11.3°C
06/01/23 17:55 EGUN 061755Z 17009KT 9999 SCT020 BKN170 09/09 A2986 RMK AO2A SLP115 T00880088 10095 20085 56011 $ 10.4mph 8.8°C 8.8°C 9.5°C
06/01/23 16:55 EGUN 061655Z 18010KT 9999 BKN170 BKN200 09/09 A2986 RMK AO2A SLP115 T00860086 $ 11.5mph 8.6°C 8.6°C 9.3°C
06/01/23 15:55 EGUN 061555Z 17009KT 9999 BKN200 BKN300 09/09 A2988 RMK AO2A SLP122 T00870087 $ 10.4mph 8.7°C 8.7°C 9.4°C
06/01/23 14:55 EGUN 061455Z 21013KT 9999 FEW030 BKN200 BKN300 09/09 A2989 RMK AO2A SLP125 T00930093 57015 $ 15.0mph 9.3°C 9.3°C 10.3°C
06/01/23 13:55 EGUN 061355Z 22012KT 9999 SCT100 BKN200 09/09 A2991 RMK AO2A SLP132 T00910091 $ 13.8mph 9.1°C 9.1°C 10.0°C
06/01/23 12:55 EGUN 061255Z 23014KT 9999 FEW100 BKN200 09/09 A2992 RMK AO2A SLP135 T00920092 $ 16.1mph 9.2°C 9.2°C 10.1°C
06/01/23 11:55 EGUN 061155Z 20012KT 9999 BKN100 BKN150 BKN200 09/09 A2994 RMK AO2A SLP142 70005 T00880088 10088 20063 55003 $ 13.8mph 8.8°C 8.8°C 9.5°C
06/01/23 10:55 EGUN 061055Z 22014KT 9999 BKN150 BKN200 08/08 A2994 RMK AO2A SLP142 T00820082 $ 16.1mph 8.2°C 8.2°C 8.7°C
06/01/23 09:55 EGUN 060955Z 21012KT 9999 BKN150 BKN200 07/07 A2994 RMK AO2A SLP142 T00710071 $ 13.8mph 7.1°C 7.1°C 7.2°C
06/01/23 08:55 EGUN 060855Z 21010KT 9999 FEW040 BKN150 BKN200 07/07 A2995 RMK AO2A SLP145 T00680068 52016 $ 11.5mph 6.8°C 6.8°C 6.7°C
06/01/23 07:55 EGUN 060755Z 22012KT 9999 FEW120 FEW200 06/06 A2992 RMK AO2A SLP135 T00630063 $ 13.8mph 6.3°C 6.3°C 6.0°C
06/01/23 06:55 EGUN 060655Z 23016KT 9999 FEW200 07/07 A2991 RMK AO2A SLP132 T00660066 $ 18.4mph 6.6°C 6.6°C 6.5°C
06/01/23 05:55 EGUN 060555Z 23014KT 9999 FEW200 07/07 A2990 RMK AO2A SLP128 60005 T00680068 10112 20067 52015 $ 16.1mph 6.8°C 6.8°C 6.7°C
06/01/23 04:55 EGUN 060455Z 25011KT 9999 FEW040 FEW200 07/07 A2988 RMK AO2A SLP122 T00700070 $ 12.7mph 7°C 7°C 7.0°C
06/01/23 03:55 EGUN 060355Z 25010KT 9999 FEW050 FEW200 08/08 A2987 RMK AO2A DZE16 SLP118 P0000 T00780078 $ 11.5mph 7.8°C 7.8°C 8.1°C
06/01/23 03:16 EGUN 060316Z 26011KT 9999 SCT040 BKN060 08/08 A2986 RMK AO2A DZE16 SLP115 $ 12.7mph 8°C 8°C 8.4°C
06/01/23 02:41 EGUN 060241Z 27010KT 9999 FEW018 SCT027 BKN035 BKN075 09/09 A2985 RMK AO2A RAE41 SLP111 $ 11.5mph 9°C 9°C 9.8°C
06/01/23 02:14 EGUN 060214Z 24018G26KT 6000 -RA BR FEW010 SCT016 BKN023 11/11 A2981 RMK AO2A CIG 020V028 SLP098 $ -RA BR 20.7mph 29.9mph 11°C 11°C 12.8°C
06/01/23 01:31 EGUN 060131Z 21017G25KT 9999 -RA SCT018 BKN028 BKN043 11/11 A2980 RMK AO2A RAB0055 SLP094 $ -RA 19.6mph 28.8mph 11°C 11°C 12.8°C
06/01/23 00:55 EGUN 060055Z 20015G23KT 9999 -RA SCT027 BKN047 BKN120 11/11 A2981 RMK AO2A RAB55 SLP098 P0000 T01120112 $ -RA 17.3mph 26.5mph 11.2°C 11.2°C 13.1°C
05/01/23 23:55 EGUN 052355Z 20017G23KT 9999 FEW026 SCT033 BKN050 BKN200 11/11 A2984 RMK AO2A SLP108 T01080108 10113 20103 401260083 57017 $ 19.6mph 26.5mph 10.8°C 10.8°C 12.5°C
05/01/23 22:55 EGUN 052255Z 21017G26KT 9999 SCT033 BKN046 BKN230 11/11 A2986 RMK AO2A PK WND 20026/45 SLP115 T01120112 $ 19.6mph 29.9mph 11.2°C 11.2°C 13.1°C
05/01/23 21:55 EGUN 052155Z 20013KT 9999 FEW024 SCT047 BKN210 11/11 A2988 RMK AO2A SLP122 T01080108 $ 15.0mph 10.8°C 10.8°C 12.5°C
05/01/23 20:55 EGUN 052055Z 21017KT 9999 FEW020 SCT047 BKN200 11/11 A2990 RMK AO2A SLP128 T01060106 57022 $ 19.6mph 10.6°C 10.6°C 12.2°C
05/01/23 19:55 EGUN 051955Z 20013KT 9999 FEW020 FEW050 BKN200 10/10 A2993 RMK AO2A SLP139 T01030103 $ 15.0mph 10.3°C 10.3°C 11.7°C
05/01/23 18:55 EGUN 051855Z 20015KT 9999 FEW020 FEW050 BKN200 11/11 A2995 RMK AO2A SLP145 T01060106 $ 17.3mph 10.6°C 10.6°C 12.2°C
05/01/23 17:55 EGUN 051755Z 21013KT 9999 FEW020 SCT050 BKN200 11/11 A2996 RMK AO2A SLP149 T01080108 10126 20107 57015 $ 15.0mph 10.8°C 10.8°C 12.5°C
05/01/23 16:55 EGUN 051655Z 21014KT 9999 FEW020 SCT050 BKN200 11/11 A2997 RMK AO2A SLP152 T01110111 $ 16.1mph 11.1°C 11.1°C 12.9°C